Terminal Aerodrome Forecast
Issued by NWS

Home | Current Version | Previous Version | Text Only | Print | Product List | Glossary On
Versions: 1 2 3 4 5 6 7 8 9 10 11 12 13 14 15 16
000
FTUS45 KVEF 292300
TAFEED
TAF
KEED 292320Z 3000/3024 01011KT P6SM OVC150
     FM300200 33006KT P6SM OVC120
     FM300600 33009KT P6SM VCSH SCT060 OVC100
     FM301000 34010KT 6SM -RA BR SCT030 OVC060 PROB30 3012/3018 3SM
      RA BR BKN030
     FM301800 01008KT 3SM RA BR OVC030=

USA.gov is the U.S. government's official web portal to all federal, state and local government web resources and services.